EGLC/LCY METAR and TAF weather

Enter ICAO airport designator
Station Type Date Time Source
EGLC METAR 2022/01/26 20:50 UTC NOAA

EGLC 262050Z AUTO 24008KT 9999 OVC028 06/01 Q1030


Station Type Date Time Source
EGLC Decoded METAR 2022/01/26 20:50 UTC NOAA

London City Airport, United Kingdom (EGLC) 51-30N 000-30W
Jan 26, 2022 - 03:50 PM EST / 2022.01.26 2050 UTC
Wind: from the WSW (240 degrees) at 9 MPH (8 KT):0
Visibility: greater than 7 mile(s):0
Sky conditions: overcast
Temperature: 42 F (6 C)
Dew Point: 33 F (1 C)
Relative Humidity: 70%
Pressure (altimeter): 30.42 in. Hg (1030 hPa)
ob: EGLC 262050Z AUTO 24008KT 9999 OVC028 06/01 Q1030
cycle: 21

Station Type Date Time Source
EGLC TAF 2018/10/15 21:30 UTC NOAA

TAF EGLC 152119Z 1521/1621 CNL

Example: see airport list